createdAt,value
2018-01-03T00:00:58.083Z,51.80
2018-01-03T00:03:28.397Z,43.70
2018-01-03T00:05:57.889Z,44.80
2018-01-03T00:08:27.643Z,36.37
2018-01-03T00:10:57.290Z,44.30
2018-01-03T00:13:27.322Z,42.03
2018-01-03T00:16:03.221Z,34.97
2018-01-03T00:18:34.063Z,36.50
2018-01-03T00:21:03.787Z,31.33
2018-01-03T00:23:34.349Z,35.30
2018-01-03T00:26:04.234Z,25.67
2018-01-03T00:28:33.803Z,35.37
2018-01-03T00:31:03.419Z,26.50
2018-01-03T00:33:33.205Z,30.63
2018-01-03T00:36:03.513Z,35.30
2018-01-03T00:38:33.207Z,30.43
2018-01-03T00:41:03.206Z,25.47
2018-01-03T00:43:32.874Z,32.50
2018-01-03T00:46:02.767Z,24.30
2018-01-03T00:48:32.467Z,22.83
2018-01-03T00:51:02.418Z,22.93
2018-01-03T00:53:31.928Z,30.30
2018-01-03T00:56:01.880Z,17.03
2018-01-03T00:58:31.673Z,21.13
2018-01-03T01:01:01.346Z,15.30
2018-01-03T01:03:32.208Z,21.20
2018-01-03T01:06:02.062Z,15.60
2018-01-03T01:08:31.602Z,20.10
2018-01-03T01:11:01.068Z,19.20
2018-01-03T01:13:30.784Z,16.40
2018-01-03T01:16:00.387Z,20.97
2018-01-03T01:18:30.079Z,12.13
2018-01-03T01:20:59.682Z,11.20
2018-01-03T01:23:29.405Z,11.63
2018-01-03T01:25:59.136Z,12.77
2018-01-03T01:28:29.532Z,12.33
2018-01-03T01:31:02.896Z,11.80
2018-01-03T01:33:32.437Z,6.20
2018-01-03T01:36:02.045Z,7.43
2018-01-03T01:38:31.475Z,14.73
2018-01-03T01:41:01.317Z,6.33
2018-01-03T01:43:30.778Z,6.27
2018-01-03T01:46:00.520Z,6.70
2018-01-03T01:48:29.998Z,10.90
2018-01-03T01:50:59.438Z,5.70
2018-01-03T01:53:29.462Z,6.63
2018-01-03T01:55:59.076Z,7.50
2018-01-03T01:58:28.919Z,7.17
2018-01-03T02:00:58.591Z,4.97
2018-01-03T02:03:28.367Z,4.47
2018-01-03T02:05:58.390Z,5.07
2018-01-03T02:08:28.130Z,4.17
2018-01-03T02:10:57.869Z,4.80
2018-01-03T02:13:28.735Z,4.60
2018-01-03T02:15:58.424Z,4.37
2018-01-03T02:18:28.675Z,4.43
2018-01-03T02:20:58.208Z,4.90
2018-01-03T02:23:28.438Z,5.50
2018-01-03T02:25:58.114Z,4.63
2018-01-03T02:28:28.514Z,4.30
2018-01-03T02:30:57.955Z,4.70
2018-01-03T02:33:27.500Z,4.40
2018-01-03T02:35:57.018Z,4.33
2018-01-03T02:38:32.242Z,8.43
2018-01-03T02:41:01.790Z,3.70
2018-01-03T02:43:31.208Z,4.73
2018-01-03T02:46:01.511Z,3.70
2018-01-03T02:48:31.686Z,4.00
2018-01-03T02:51:01.163Z,4.53
2018-01-03T02:53:31.448Z,4.80
2018-01-03T02:56:03.902Z,5.53
2018-01-03T02:58:33.639Z,5.83
2018-01-03T03:01:03.245Z,5.30
2018-01-03T03:03:32.890Z,5.17
2018-01-03T03:06:02.593Z,4.67
2018-01-03T03:08:33.112Z,7.00
2018-01-03T03:11:03.393Z,6.20
2018-01-03T03:13:33.399Z,6.40
2018-01-03T03:16:03.095Z,5.03
2018-01-03T03:18:32.686Z,4.83
2018-01-03T03:21:02.318Z,4.97
2018-01-03T03:23:31.935Z,5.37
2018-01-03T03:26:01.447Z,6.17
2018-01-03T03:28:31.188Z,4.93
2018-01-03T03:31:00.851Z,5.60
2018-01-03T03:33:30.391Z,4.87
2018-01-03T03:36:00.145Z,4.60
2018-01-03T03:38:29.590Z,6.03
2018-01-03T03:41:02.706Z,4.53
2018-01-03T03:43:32.618Z,4.20
2018-01-03T03:46:02.839Z,4.43
2018-01-03T03:48:32.608Z,4.93
2018-01-03T03:51:02.234Z,5.13
2018-01-03T03:53:31.694Z,4.40
2018-01-03T03:56:01.411Z,4.37
2018-01-03T03:58:31.106Z,4.30
2018-01-03T04:01:00.562Z,4.23
2018-01-03T04:03:30.182Z,4.80
2018-01-03T04:05:59.654Z,4.07
2018-01-03T04:08:29.460Z,4.50
2018-01-03T04:10:58.881Z,4.60
2018-01-03T04:13:28.362Z,4.43
2018-01-03T04:15:57.890Z,4.60
2018-01-03T04:18:27.692Z,3.87
2018-01-03T04:20:57.132Z,4.90
2018-01-03T04:23:26.805Z,5.43
2018-01-03T04:25:56.867Z,4.63
2018-01-03T04:28:26.969Z,4.33
2018-01-03T04:30:56.669Z,3.80
2018-01-03T04:33:27.657Z,4.53
2018-01-03T04:35:57.314Z,4.07
2018-01-03T04:38:27.587Z,3.70
2018-01-03T04:40:57.032Z,3.70
2018-01-03T04:43:26.686Z,3.77
2018-01-03T04:45:57.166Z,3.73
2018-01-03T04:48:26.830Z,3.77
2018-01-03T04:50:56.709Z,3.30
2018-01-03T04:53:26.273Z,3.43
2018-01-03T04:55:56.258Z,3.10
2018-01-03T04:58:25.747Z,3.63
2018-01-03T05:00:55.326Z,3.73
2018-01-03T05:03:24.767Z,4.20
2018-01-03T05:05:54.379Z,3.47
2018-01-03T05:08:23.997Z,3.77
2018-01-03T05:10:53.410Z,3.73
2018-01-03T05:13:23.134Z,3.63
2018-01-03T05:15:52.634Z,3.77
2018-01-03T05:18:22.224Z,3.00
2018-01-03T05:20:51.886Z,2.60
2018-01-03T05:23:21.393Z,2.97
2018-01-03T05:25:50.829Z,3.07
2018-01-03T05:28:20.276Z,2.70
2018-01-03T05:30:49.818Z,2.90
2018-01-03T05:33:19.485Z,2.63
2018-01-03T05:35:48.928Z,2.23
2018-01-03T05:38:19.406Z,2.53
2018-01-03T05:40:49.294Z,2.40
2018-01-03T05:43:18.725Z,2.50
2018-01-03T05:45:48.261Z,2.13
2018-01-03T05:48:17.681Z,3.77
2018-01-03T05:50:48.096Z,2.40
2018-01-03T05:53:17.546Z,2.10
2018-01-03T05:55:47.212Z,2.27
2018-01-03T05:58:16.857Z,1.70
2018-01-03T06:00:46.307Z,1.40
2018-01-03T06:03:16.004Z,1.33
2018-01-03T06:05:45.703Z,2.00
2018-01-03T06:08:15.172Z,1.40
2018-01-03T06:10:45.009Z,2.03
2018-01-03T06:13:14.499Z,1.90
2018-01-03T06:15:44.592Z,1.50
2018-01-03T06:18:15.931Z,1.10
2018-01-03T06:20:46.146Z,1.77
2018-01-03T06:23:16.596Z,1.20
2018-01-03T06:25:46.323Z,1.97
2018-01-03T06:28:15.943Z,1.20
2018-01-03T06:30:45.690Z,2.30
2018-01-03T06:33:16.296Z,1.63
2018-01-03T06:35:45.882Z,1.00
2018-01-03T06:38:15.428Z,1.37
2018-01-03T06:40:45.178Z,1.00
2018-01-03T06:43:15.692Z,1.00
2018-01-03T06:45:45.360Z,1.03
2018-01-03T06:48:15.270Z,0.80
2018-01-03T06:50:44.887Z,0.80
2018-01-03T06:53:14.313Z,1.47
2018-01-03T06:55:44.557Z,1.23
2018-01-03T06:58:14.004Z,1.00
2018-01-03T07:00:43.579Z,1.23
2018-01-03T07:03:13.043Z,1.07
2018-01-03T07:05:42.919Z,1.57
2018-01-03T07:08:12.846Z,1.33
2018-01-03T07:10:42.449Z,2.23
2018-01-03T07:13:11.897Z,1.80
2018-01-03T07:15:42.641Z,1.30
2018-01-03T07:18:12.121Z,1.10
2018-01-03T07:20:41.694Z,1.20
2018-01-03T07:23:11.127Z,1.77
2018-01-03T07:25:42.067Z,1.20
2018-01-03T07:28:11.846Z,1.80
2018-01-03T07:30:41.306Z,2.03
2018-01-03T07:33:11.060Z,2.07
2018-01-03T07:35:40.604Z,2.40
2018-01-03T07:38:10.040Z,2.73
2018-01-03T07:40:39.519Z,3.10
2018-01-03T07:43:09.726Z,4.03
2018-01-03T07:45:40.171Z,5.97
2018-01-03T07:48:10.773Z,5.97
2018-01-03T07:50:40.314Z,2.70
2018-01-03T07:53:09.923Z,5.73
2018-01-03T07:55:40.142Z,3.60
2018-01-03T07:58:09.607Z,16.03
2018-01-03T08:00:39.195Z,8.80
2018-01-03T08:03:08.945Z,17.00
2018-01-03T08:05:38.427Z,6.20
2018-01-03T08:08:07.880Z,22.50
2018-01-03T08:10:37.511Z,16.13
2018-01-03T08:13:06.957Z,23.10
2018-01-03T08:15:36.587Z,18.53
2018-01-03T08:18:06.858Z,21.47
2018-01-03T08:20:37.482Z,21.90
2018-01-03T08:23:08.233Z,14.33
2018-01-03T08:25:40.226Z,23.93
2018-01-03T08:28:10.689Z,16.43
2018-01-03T08:30:40.359Z,17.33
2018-01-03T08:33:09.841Z,17.53
2018-01-03T08:35:39.302Z,22.10
2018-01-03T08:38:08.766Z,15.97
2018-01-03T08:40:38.285Z,17.57
2018-01-03T08:43:08.680Z,24.50
2018-01-03T08:45:38.141Z,22.77
2018-01-03T08:48:08.755Z,28.87
2018-01-03T08:50:38.441Z,19.27
2018-01-03T08:53:09.551Z,26.57
2018-01-03T08:55:38.984Z,27.33
2018-01-03T08:58:08.445Z,27.90
2018-01-03T09:00:37.937Z,29.13
2018-01-03T09:03:07.663Z,34.13
2018-01-03T09:05:37.109Z,33.43
2018-01-03T09:08:06.560Z,40.60
2018-01-03T09:10:36.354Z,37.00
2018-01-03T09:13:05.799Z,38.73
2018-01-03T09:15:35.205Z,46.67
2018-01-03T09:18:05.631Z,41.90
2018-01-03T09:20:35.277Z,29.17
2018-01-03T09:23:04.796Z,34.73
2018-01-03T09:25:34.465Z,35.33
2018-01-03T09:28:04.220Z,29.07
2018-01-03T09:30:33.995Z,30.50
2018-01-03T09:33:04.308Z,33.60
2018-01-03T09:35:34.055Z,33.90
2018-01-03T09:38:03.506Z,31.40
2018-01-03T09:40:33.419Z,45.23
2018-01-03T09:43:02.867Z,34.60
2018-01-03T09:45:32.534Z,42.70
2018-01-03T09:48:01.995Z,51.80
2018-01-03T09:50:31.639Z,24.87
2018-01-03T09:53:01.098Z,27.23
2018-01-03T09:55:30.749Z,23.90
2018-01-03T09:58:00.224Z,37.13
2018-01-03T10:00:29.881Z,20.87
2018-01-03T10:02:59.457Z,24.87
2018-01-03T10:05:28.981Z,32.40
2018-01-03T10:07:58.460Z,35.70
2018-01-03T10:10:28.016Z,24.73
2018-01-03T10:12:58.378Z,24.90
2018-01-03T10:15:27.917Z,32.27
2018-01-03T10:17:57.362Z,33.80
2018-01-03T10:20:27.789Z,39.83
2018-01-03T10:22:57.487Z,27.27
2018-01-03T10:25:27.084Z,24.87
2018-01-03T10:27:57.331Z,41.20
2018-01-03T10:30:26.795Z,30.57
2018-01-03T10:32:56.254Z,25.03
2018-01-03T10:35:25.891Z,20.03
2018-01-03T10:37:55.418Z,34.10
2018-01-03T10:40:24.899Z,24.40
2018-01-03T10:42:54.411Z,108.93
2018-01-03T10:45:23.946Z,177.63
2018-01-03T10:47:53.592Z,44.83
2018-01-03T10:50:23.902Z,53.37
2018-01-03T10:52:53.375Z,43.10
2018-01-03T10:55:22.862Z,35.00
2018-01-03T10:57:52.703Z,38.30
2018-01-03T11:00:22.586Z,24.33
2018-01-03T11:02:52.091Z,30.07
2018-01-03T11:05:22.131Z,35.83
2018-01-03T11:07:51.670Z,21.03
2018-01-03T11:10:21.513Z,36.37
2018-01-03T11:12:51.277Z,36.80
2018-01-03T11:15:20.986Z,21.30
2018-01-03T11:17:52.027Z,29.13
2018-01-03T11:20:21.540Z,38.83
2018-01-03T11:22:51.488Z,29.33
2018-01-03T11:25:21.545Z,24.83
2018-01-03T11:27:51.360Z,22.40
2018-01-03T11:30:22.248Z,31.40
2018-01-03T11:32:52.380Z,29.97
2018-01-03T11:35:22.074Z,31.20
2018-01-03T11:37:51.660Z,30.17
2018-01-03T11:40:21.241Z,29.17
2018-01-03T11:42:51.212Z,26.00
2018-01-03T11:45:21.341Z,30.37
2018-01-03T11:47:51.003Z,16.37
2018-01-03T11:50:20.795Z,22.40
2018-01-03T11:52:50.286Z,37.97
2018-01-03T11:55:20.293Z,22.80
2018-01-03T11:57:50.343Z,32.60
2018-01-03T12:00:20.922Z,29.73
2018-01-03T12:02:50.505Z,20.33
2018-01-03T12:05:20.279Z,34.10
2018-01-03T12:07:49.976Z,14.67
2018-01-03T12:10:19.511Z,19.90
2018-01-03T12:12:49.039Z,20.87
2018-01-03T12:15:18.535Z,24.37
2018-01-03T12:17:48.407Z,27.80
2018-01-03T12:20:17.902Z,20.10
2018-01-03T12:22:47.382Z,25.63
2018-01-03T12:25:17.923Z,24.90
2018-01-03T12:27:47.852Z,26.97
2018-01-03T12:30:17.320Z,11.63
2018-01-03T12:32:46.970Z,19.00
2018-01-03T12:35:16.685Z,15.83
2018-01-03T12:37:47.043Z,8.10
2018-01-03T12:40:16.593Z,13.10
2018-01-03T12:42:46.038Z,11.30
2018-01-03T12:45:15.742Z,7.93
2018-01-03T12:47:45.258Z,10.30
2018-01-03T12:50:14.819Z,11.83
2018-01-03T12:52:44.296Z,17.23
2018-01-03T12:55:13.921Z,10.20
2018-01-03T12:57:43.466Z,13.57
2018-01-03T13:00:13.419Z,12.90
2018-01-03T13:02:42.905Z,9.40
2018-01-03T13:05:12.481Z,16.83
2018-01-03T13:07:41.941Z,10.73
2018-01-03T13:10:11.846Z,11.13
2018-01-03T13:12:41.304Z,9.40
2018-01-03T13:15:10.884Z,12.13
2018-01-03T13:17:40.602Z,7.77
2018-01-03T13:20:10.285Z,18.43
2018-01-03T13:22:39.910Z,8.63
2018-01-03T13:25:09.406Z,4.80
2018-01-03T13:27:38.848Z,6.83
2018-01-03T13:30:08.355Z,9.80
2018-01-03T13:32:39.046Z,7.50
2018-01-03T13:35:08.959Z,9.67
2018-01-03T13:37:38.787Z,4.97
2018-01-03T13:40:08.340Z,12.07
2018-01-03T13:42:38.171Z,8.63
2018-01-03T13:45:07.707Z,4.97
2018-01-03T13:47:37.393Z,5.70
2018-01-03T13:50:07.240Z,8.90
2018-01-03T13:52:37.192Z,9.47
2018-01-03T13:55:07.031Z,4.80
2018-01-03T13:57:36.816Z,5.23
2018-01-03T14:00:06.561Z,7.97
2018-01-03T14:02:37.397Z,4.60
2018-01-03T14:05:06.890Z,2.00
2018-01-03T14:07:36.854Z,3.30
2018-01-03T14:10:06.441Z,3.33
2018-01-03T14:12:36.302Z,3.47
2018-01-03T14:15:06.642Z,1.17
2018-01-03T14:17:36.420Z,4.87
2018-01-03T14:20:06.855Z,1.90
2018-01-03T14:22:36.742Z,1.33
2018-01-03T14:25:06.540Z,1.13
2018-01-03T14:27:37.222Z,2.00
2018-01-03T14:30:06.822Z,5.03
2018-01-03T14:32:36.562Z,1.20
2018-01-03T14:35:07.984Z,1.53
2018-01-03T14:37:37.462Z,2.00
2018-01-03T14:40:07.086Z,1.17
2018-01-03T14:42:37.887Z,1.67
2018-01-03T14:45:07.879Z,5.17
2018-01-03T14:47:37.584Z,1.40
2018-01-03T14:50:07.240Z,1.83
2018-01-03T14:52:36.989Z,1.93
2018-01-03T14:55:06.719Z,1.00
2018-01-03T14:57:36.505Z,1.80
2018-01-03T15:00:06.322Z,1.10
2018-01-03T15:02:35.974Z,4.10
2018-01-03T15:05:06.542Z,3.90
2018-01-03T15:07:36.704Z,2.17
2018-01-03T15:10:06.522Z,4.20
2018-01-03T15:12:36.608Z,1.10
2018-01-03T15:15:06.229Z,1.43
2018-01-03T15:17:36.793Z,2.23
2018-01-03T15:20:06.448Z,1.80
2018-01-03T15:22:36.846Z,1.63
2018-01-03T15:25:07.200Z,2.90
2018-01-03T15:27:37.675Z,1.10
2018-01-03T15:30:07.283Z,0.80
2018-01-03T15:32:36.928Z,1.73
2018-01-03T15:35:06.753Z,2.70
2018-01-03T15:37:36.574Z,2.40
2018-01-03T15:40:06.562Z,1.63
2018-01-03T15:42:36.892Z,1.43
2018-01-03T15:45:06.396Z,1.20
2018-01-03T15:47:36.396Z,1.07
2018-01-03T15:50:06.646Z,1.37
2018-01-03T15:52:36.618Z,1.70
2018-01-03T15:55:07.712Z,2.23
2018-01-03T15:57:37.310Z,1.10
2018-01-03T16:00:07.121Z,0.80
2018-01-03T16:02:37.077Z,1.20
2018-01-03T16:05:06.897Z,0.90
2018-01-03T16:07:36.597Z,1.30
2018-01-03T16:10:06.480Z,2.30
2018-01-03T16:12:36.351Z,1.50
2018-01-03T16:15:06.120Z,1.10
2018-01-03T16:17:35.954Z,1.37
2018-01-03T16:20:05.575Z,2.13
2018-01-03T16:22:35.391Z,1.80
2018-01-03T16:25:05.231Z,2.33
2018-01-03T16:27:35.202Z,2.10
2018-01-03T16:30:04.758Z,2.60
2018-01-03T16:32:34.585Z,1.93
2018-01-03T16:35:04.141Z,4.00
2018-01-03T16:37:34.491Z,1.97
2018-01-03T16:40:04.313Z,2.70
2018-01-03T16:42:34.221Z,3.50
2018-01-03T16:45:03.866Z,3.70
2018-01-03T16:47:34.293Z,3.50
2018-01-03T16:50:04.107Z,4.00
2018-01-03T16:52:38.217Z,3.80
2018-01-03T16:55:07.865Z,4.50
2018-01-03T16:57:37.700Z,3.90
2018-01-03T17:00:07.491Z,5.70
2018-01-03T17:02:37.838Z,6.63
2018-01-03T17:05:07.543Z,4.60
2018-01-03T17:07:37.360Z,4.60
2018-01-03T17:10:07.174Z,5.00
2018-01-03T17:12:36.829Z,4.67
2018-01-03T17:15:06.782Z,5.10
2018-01-03T17:17:37.256Z,5.63
2018-01-03T17:20:07.021Z,5.13
2018-01-03T17:22:36.831Z,6.10
2018-01-03T17:25:06.594Z,5.07
2018-01-03T17:27:36.783Z,5.40
2018-01-03T17:30:06.470Z,6.10
2018-01-03T17:32:37.226Z,6.53
2018-01-03T17:35:06.980Z,6.07
2018-01-03T17:37:36.828Z,5.57
2018-01-03T17:40:12.302Z,6.17
2018-01-03T17:42:42.048Z,5.63
2018-01-03T17:45:11.728Z,6.00
2018-01-03T17:47:41.686Z,7.23
2018-01-03T17:50:11.588Z,6.77
2018-01-03T17:52:41.534Z,6.50
2018-01-03T17:55:11.256Z,4.70
2018-01-03T17:57:41.072Z,5.67
2018-01-03T18:00:11.100Z,7.13
2018-01-03T18:02:40.873Z,8.37
2018-01-03T18:05:11.338Z,7.13
2018-01-03T18:07:41.556Z,8.20
2018-01-03T18:10:11.484Z,7.20
2018-01-03T18:12:41.354Z,6.93
2018-01-03T18:15:11.644Z,7.57
2018-01-03T18:17:42.930Z,6.60
2018-01-03T18:20:12.475Z,6.63
2018-01-03T18:22:42.202Z,6.27
2018-01-03T18:25:11.733Z,6.43
2018-01-03T18:27:41.593Z,7.33
2018-01-03T18:30:11.195Z,9.57
2018-01-03T18:32:40.924Z,7.50
2018-01-03T18:35:10.810Z,7.00
2018-01-03T18:37:40.552Z,10.63
2018-01-03T18:40:10.737Z,7.47
2018-01-03T18:42:40.792Z,10.40
2018-01-03T18:45:12.526Z,14.33
2018-01-03T18:47:42.648Z,8.30
2018-01-03T18:50:12.839Z,10.37
2018-01-03T18:52:42.699Z,10.73
2018-01-03T18:55:12.418Z,16.40
2018-01-03T18:57:42.134Z,6.63
2018-01-03T19:00:11.986Z,16.03
2018-01-03T19:02:41.749Z,12.97
2018-01-03T19:05:11.707Z,6.77
2018-01-03T19:07:41.694Z,10.43
2018-01-03T19:10:11.530Z,10.93
2018-01-03T19:12:41.306Z,12.90
2018-01-03T19:15:11.093Z,16.70
2018-01-03T19:17:40.781Z,11.73
2018-01-03T19:20:10.598Z,9.23
2018-01-03T19:22:40.255Z,7.83
2018-01-03T19:25:10.023Z,9.00
2018-01-03T19:27:39.597Z,4.63
2018-01-03T19:30:09.189Z,12.63
2018-01-03T19:32:39.045Z,9.00
2018-01-03T19:35:08.896Z,8.83
2018-01-03T19:37:38.511Z,12.30
2018-01-03T19:40:08.405Z,10.63
2018-01-03T19:42:38.642Z,8.03
2018-01-03T19:45:08.338Z,9.87
2018-01-03T19:47:37.952Z,7.80
2018-01-03T19:50:07.756Z,5.37
2018-01-03T19:52:37.562Z,4.13
2018-01-03T19:55:07.686Z,12.90
2018-01-03T19:57:37.607Z,5.10
2018-01-03T20:00:07.475Z,4.80
2018-01-03T20:02:37.339Z,6.20
2018-01-03T20:05:07.122Z,8.20
2018-01-03T20:07:37.179Z,6.83
2018-01-03T20:10:06.980Z,2.40
2018-01-03T20:12:36.883Z,2.87
2018-01-03T20:15:06.665Z,5.47
2018-01-03T20:17:36.754Z,2.30
2018-01-03T20:20:07.498Z,3.57
2018-01-03T20:22:37.805Z,1.20
2018-01-03T20:25:07.988Z,10.03
2018-01-03T20:27:37.867Z,3.87
2018-01-03T20:30:08.023Z,10.53
2018-01-03T20:32:37.891Z,3.40
2018-01-03T20:35:08.300Z,8.23
2018-01-03T20:37:38.307Z,4.87
2018-01-03T20:40:08.262Z,7.53
2018-01-03T20:42:38.256Z,7.53
2018-01-03T20:45:08.458Z,8.23
2018-01-03T20:47:38.425Z,3.57
2018-01-03T20:50:08.051Z,9.20
2018-01-03T20:52:37.871Z,10.77
2018-01-03T20:55:07.604Z,8.93
2018-01-03T20:57:37.485Z,7.87
2018-01-03T21:00:07.919Z,9.07
2018-01-03T21:02:37.715Z,15.57
2018-01-03T21:05:07.745Z,10.20
2018-01-03T21:07:38.262Z,13.20
2018-01-03T21:10:08.493Z,16.37
2018-01-03T21:12:38.568Z,20.10
2018-01-03T21:15:08.277Z,6.83
2018-01-03T21:17:38.281Z,21.20
2018-01-03T21:20:08.707Z,7.13
2018-01-03T21:22:39.470Z,12.73
2018-01-03T21:25:09.248Z,7.37
2018-01-03T21:27:39.834Z,13.73
2018-01-03T21:30:09.418Z,17.07
2018-01-03T21:32:38.934Z,7.67
2018-01-03T21:35:09.339Z,10.90
2018-01-03T21:37:39.675Z,20.33
2018-01-03T21:40:09.488Z,12.57
2018-01-03T21:42:39.588Z,10.60
2018-01-03T21:45:09.940Z,16.60
2018-01-03T21:47:40.042Z,15.10
2018-01-03T21:50:09.832Z,7.90
2018-01-03T21:52:39.899Z,14.43
2018-01-03T21:55:09.596Z,11.70
2018-01-03T21:57:39.350Z,15.90
2018-01-03T22:00:10.817Z,10.70
2018-01-03T22:02:40.883Z,10.20
2018-01-03T22:05:10.387Z,13.00
2018-01-03T22:07:40.138Z,8.60
2018-01-03T22:10:09.959Z,13.53
2018-01-03T22:12:39.777Z,8.60
2018-01-03T22:15:10.139Z,12.77
2018-01-03T22:17:39.855Z,7.73
2018-01-03T22:20:09.573Z,13.07
2018-01-03T22:22:39.272Z,11.20
2018-01-03T22:25:08.771Z,4.47
2018-01-03T22:27:38.390Z,11.17
2018-01-03T22:30:08.253Z,6.77
2018-01-03T22:32:38.024Z,10.60
2018-01-03T22:35:07.797Z,5.47
2018-01-03T22:37:37.807Z,2.93
2018-01-03T22:40:07.610Z,9.20
2018-01-03T22:42:37.640Z,4.20
2018-01-03T22:45:07.272Z,3.33
2018-01-03T22:47:37.256Z,3.83
2018-01-03T22:50:07.127Z,2.60
2018-01-03T22:52:37.148Z,9.40
2018-01-03T22:55:06.850Z,4.97
2018-01-03T22:57:36.833Z,2.30
2018-01-03T23:00:06.565Z,12.57
2018-01-03T23:02:36.359Z,5.03
2018-01-03T23:05:05.846Z,7.00
2018-01-03T23:07:35.703Z,6.63
2018-01-03T23:10:05.600Z,11.13
2018-01-03T23:12:35.174Z,4.20
2018-01-03T23:15:04.850Z,5.50
2018-01-03T23:17:35.582Z,6.50
2018-01-03T23:20:05.456Z,11.40
2018-01-03T23:22:35.358Z,6.90
2018-01-03T23:25:04.997Z,2.60
2018-01-03T23:27:34.705Z,8.77
2018-01-03T23:30:04.476Z,6.77
2018-01-03T23:32:34.360Z,6.53
2018-01-03T23:35:03.831Z,6.53
2018-01-03T23:37:33.411Z,3.60
2018-01-03T23:40:03.167Z,3.40
2018-01-03T23:42:32.619Z,6.80
2018-01-03T23:45:02.366Z,11.00
2018-01-03T23:47:32.078Z,3.17
2018-01-03T23:50:01.547Z,4.20
2018-01-03T23:52:31.311Z,5.07
2018-01-03T23:55:01.531Z,7.83
2018-01-03T23:57:31.117Z,5.80
